Time;durP1;ratioP1;P1;durP2;ratioP2;P2;SDS_P1;SDS_P2;PMS_P1;PMS_P2;Temp;Humidity;BMP_temperature;BMP_pressure;BME280_temperature;BME280_humidity;BME280_pressure;Samples;Min_cycle;Max_cycle;Signal;HPM_P1;HPM_P2
2021/09/06 00:02:07;;;;;;;7.50;5.60;;;;;;;20.37;64.53;99000.50;5078144;28;20115;-49
2021/09/06 00:04:34;;;;;;;7.10;6.38;;;;;;;20.07;65.28;98998.44;5078137;28;20107;-49
2021/09/06 00:06:59;;;;;;;7.80;5.57;;;;;;;19.80;65.87;99009.13;5076801;28;20027;-49
2021/09/06 00:09:25;;;;;;;9.70;6.00;;;;;;;19.71;66.16;99008.78;5076729;28;20020;-49
2021/09/06 00:11:51;;;;;;;11.23;6.20;;;;;;;19.68;66.63;99010.06;5076726;28;20048;-49
2021/09/06 00:14:18;;;;;;;9.63;5.88;;;;;;;19.66;66.49;99014.00;5077940;28;20056;-48
2021/09/06 00:16:43;;;;;;;7.65;5.38;;;;;;;19.62;66.84;99013.75;5076649;28;20020;-49
2021/09/06 00:19:10;;;;;;;6.22;5.32;;;;;;;19.61;67.07;99009.44;5077965;28;20020;-49
2021/09/06 00:21:36;;;;;;;8.27;6.07;;;;;;;19.60;67.16;99010.53;5077824;28;20106;-51
2021/09/06 00:24:01;;;;;;;6.80;5.57;;;;;;;19.56;67.43;99010.22;5118692;28;20032;-49
2021/09/06 00:26:28;;;;;;;8.10;6.28;;;;;;;19.56;67.29;99012.06;5100231;28;20023;-48
2021/09/06 00:28:58;;;;;;;9.55;6.03;;;;;;;19.54;67.21;99011.53;5118576;28;20404;-49
2021/09/06 00:31:23;;;;;;;7.72;6.40;;;;;;;19.46;67.38;99011.97;5118558;28;20561;-49
2021/09/06 00:33:49;;;;;;;11.85;6.57;;;;;;;19.40;67.58;99015.59;5118457;28;20111;-49
2021/09/06 00:36:15;;;;;;;7.43;5.32;;;;;;;19.50;67.44;99015.75;5100080;28;20389;-49
2021/09/06 00:38:41;;;;;;;9.63;5.78;;;;;;;19.82;66.74;99004.34;5118522;28;20027;-49
2021/09/06 00:41:06;;;;;;;12.32;5.93;;;;;;;20.33;65.59;99012.75;5100110;28;20497;-48
2021/09/06 00:43:32;;;;;;;15.90;6.68;;;;;;;20.90;64.55;99017.38;5118445;28;20024;-48
2021/09/06 00:45:57;;;;;;;9.95;6.63;;;;;;;21.26;62.80;99003.38;5100076;28;20118;-49
2021/09/06 00:48:25;;;;;;;7.82;5.18;;;;;;;21.10;62.06;99013.19;5118348;28;20039;-49
2021/09/06 00:50:53;;;;;;;5.43;4.93;;;;;;;20.86;62.62;99013.63;5117006;28;20012;-49
2021/09/06 00:53:19;;;;;;;7.00;5.43;;;;;;;20.71;62.68;99017.00;5096243;28;20024;-49
2021/09/06 00:55:45;;;;;;;7.32;5.72;;;;;;;20.39;63.59;99013.59;5096776;28;20031;-49
2021/09/06 00:58:11;;;;;;;7.07;5.30;;;;;;;20.34;64.04;99006.34;5097058;28;20468;-49
2021/09/06 01:00:36;;;;;;;9.70;5.63;;;;;;;20.39;63.78;99009.06;5115011;28;20055;-49
2021/09/06 01:03:02;;;;;;;7.97;6.28;;;;;;;20.45;63.92;99009.91;5096645;28;20493;-49
2021/09/06 01:05:29;;;;;;;9.02;5.55;;;;;;;20.42;63.64;99005.88;5114847;28;20038;-49
2021/09/06 01:07:56;;;;;;;7.68;5.45;;;;;;;20.29;64.11;99011.66;5114880;28;20028;-49
2021/09/06 01:10:25;;;;;;;9.20;6.00;;;;;;;20.39;63.99;99002.94;5114850;28;20366;-49
2021/09/06 01:12:51;;;;;;;6.68;5.80;;;;;;;20.54;63.34;99006.50;5114795;28;20034;-49
2021/09/06 01:15:17;;;;;;;9.48;5.60;;;;;;;20.32;63.56;99014.63;5096284;28;20520;-49
2021/09/06 01:17:43;;;;;;;7.03;6.05;;;;;;;19.97;64.52;99014.34;5114726;28;20485;-48
2021/09/06 01:20:10;;;;;;;7.45;5.70;;;;;;;19.67;65.66;99019.09;5114665;28;20015;-49
2021/09/06 01:22:36;;;;;;;9.50;6.38;;;;;;;19.50;66.29;99015.75;5114386;28;20035;-49
2021/09/06 01:25:03;;;;;;;11.07;6.60;;;;;;;19.69;66.44;99014.31;5114527;28;20381;-49
2021/09/06 01:27:29;;;;;;;8.45;6.18;;;;;;;20.11;65.83;99016.31;5114493;28;20107;-49
2021/09/06 01:29:55;;;;;;;9.55;6.43;;;;;;;20.75;64.36;99014.63;5114493;28;20471;-49
2021/09/06 01:32:20;;;;;;;7.82;5.70;;;;;;;21.22;62.74;99005.75;5095975;28;20022;-49
2021/09/06 01:34:46;;;;;;;9.25;6.13;;;;;;;21.29;61.40;99011.66;5114287;28;20070;-49
2021/09/06 01:37:12;;;;;;;8.55;5.78;;;;;;;20.92;61.75;99015.25;5095962;28;20026;-49
2021/09/06 01:39:37;;;;;;;9.35;6.63;;;;;;;20.40;62.94;99013.31;5114311;28;20679;-49
2021/09/06 01:42:03;;;;;;;9.93;5.80;;;;;;;20.25;63.82;99015.91;5114234;28;20031;-49
2021/09/06 01:44:29;;;;;;;7.93;5.55;;;;;;;20.43;63.99;99014.69;5114165;28;20038;-49
2021/09/06 01:46:55;;;;;;;26.92;13.32;;;;;;;20.58;63.38;99016.63;5114091;28;20051;-49
2021/09/06 01:49:21;;;;;;;7.75;6.07;;;;;;;20.52;62.83;99021.13;5114080;28;20042;-49
2021/09/06 01:51:46;;;;;;;9.20;6.10;;;;;;;20.13;63.38;99018.72;5114068;28;20115;-49
2021/09/06 01:54:12;;;;;;;7.47;5.47;;;;;;;19.74;64.38;99021.59;5113906;28;20027;-49
2021/09/06 01:56:38;;;;;;;6.53;5.35;;;;;;;19.67;65.01;99015.63;5095666;28;20030;-49
2021/09/06 01:59:04;;;;;;;10.95;6.38;;;;;;;19.70;64.74;99023.94;5095574;28;20493;-49
2021/09/06 02:01:30;;;;;;;6.35;5.35;;;;;;;19.67;64.90;99015.63;5113792;28;20421;-48
2021/09/06 02:03:56;;;;;;;8.20;5.60;;;;;;;19.45;65.20;99021.00;5113460;28;20035;-49
2021/09/06 02:06:22;;;;;;;27.13;24.38;;;;;;;19.18;66.19;99021.78;5113695;28;20012;-49
2021/09/06 02:08:47;;;;;;;12.82;11.50;;;;;;;19.04;66.92;99021.34;5113726;28;20030;-48
2021/09/06 02:11:13;;;;;;;8.10;6.20;;;;;;;18.84;67.79;99021.88;5114018;28;20028;-49
2021/09/06 02:13:39;;;;;;;8.13;6.75;;;;;;;18.62;68.54;99016.50;5113594;28;20486;-49
2021/09/06 02:16:04;;;;;;;7.28;6.45;;;;;;;18.53;69.11;99013.47;5095205;28;20027;-49
2021/09/06 02:18:31;;;;;;;8.30;7.28;;;;;;;18.45;68.91;99024.50;5095184;28;20031;-49
2021/09/06 02:20:56;;;;;;;7.10;5.97;;;;;;;18.39;69.18;99014.84;5113436;28;20019;-49
2021/09/06 02:23:22;;;;;;;7.63;6.13;;;;;;;18.30;69.45;99019.75;5113160;28;20044;-51
2021/09/06 02:25:50;;;;;;;12.43;6.95;;;;;;;18.21;69.77;99023.88;5113350;28;20038;-51
2021/09/06 02:28:16;;;;;;;10.38;7.20;;;;;;;18.17;70.21;99025.41;5095035;28;20081;-50
2021/09/06 02:30:42;;;;;;;7.82;6.90;;;;;;;18.07;70.63;99020.72;5113328;28;20028;-50
2021/09/06 02:33:08;;;;;;;8.70;6.35;;;;;;;18.05;71.03;99025.47;5113233;28;20020;-50
2021/09/06 02:35:34;;;;;;;11.65;8.93;;;;;;;18.02;70.98;99027.81;5094829;28;20038;-50
2021/09/06 02:37:59;;;;;;;9.13;7.00;;;;;;;18.03;70.84;99030.22;5113157;28;20098;-50
2021/09/06 02:40:25;;;;;;;10.52;6.53;;;;;;;18.03;70.87;99032.06;5113058;28;20412;-50
2021/09/06 02:42:51;;;;;;;14.95;9.00;;;;;;;18.08;70.92;99034.81;5094764;28;20019;-50
2021/09/06 02:45:17;;;;;;;13.30;8.07;;;;;;;18.32;70.74;99038.13;5112988;28;20028;-50
2021/09/06 02:47:47;;;;;;;14.77;9.57;;;;;;;18.43;70.02;99034.59;5112968;28;20367;-51
2021/09/06 02:50:14;;;;;;;8.10;6.50;;;;;;;18.46;69.62;99034.09;5112931;28;20027;-50
2021/09/06 02:52:42;;;;;;;8.75;6.15;;;;;;;18.39;69.49;99028.16;5094584;28;20024;-51
2021/09/06 02:55:09;;;;;;;9.32;7.18;;;;;;;18.35;69.73;99035.78;5094407;28;20054;-51
2021/09/06 02:57:34;;;;;;;31.83;29.00;;;;;;;18.26;70.19;99028.47;5112719;28;20024;-50
2021/09/06 03:00:00;;;;;;;9.32;7.15;;;;;;;18.12;70.33;99034.09;5112751;28;20512;-51
2021/09/06 03:02:26;;;;;;;13.55;7.85;;;;;;;18.05;70.93;99040.59;5112699;28;20111;-51
2021/09/06 03:04:51;;;;;;;10.18;7.13;;;;;;;18.41;70.66;99035.84;5112662;28;20031;-51
2021/09/06 03:07:17;;;;;;;10.82;6.50;;;;;;;19.01;69.40;99039.66;5094267;28;20030;-51
2021/09/06 03:09:43;;;;;;;14.07;6.13;;;;;;;19.67;67.40;99043.06;5094322;28;20063;-51
2021/09/06 03:12:09;;;;;;;11.70;6.53;;;;;;;19.92;65.87;99037.22;5112515;28;20027;-51
2021/09/06 03:14:34;;;;;;;39.65;14.75;;;;;;;19.81;65.41;99042.69;5111782;28;20047;-51
2021/09/06 03:17:00;;;;;;;26.23;12.80;;;;;;;19.80;65.61;99041.06;5094455;28;20032;-51
2021/09/06 03:19:26;;;;;;;21.58;9.93;;;;;;;19.99;65.12;99041.53;5111128;28;20020;-51
2021/09/06 03:21:52;;;;;;;15.88;8.32;;;;;;;20.22;64.45;99035.03;5112166;28;20058;-50
2021/09/06 03:24:17;;;;;;;22.65;9.93;;;;;;;20.35;63.44;99034.63;5112374;28;20102;-51
2021/09/06 03:26:43;;;;;;;15.73;10.40;;;;;;;20.19;63.25;99031.03;5112336;28;20019;-51
2021/09/06 03:29:09;;;;;;;80.70;72.65;;;;;;;20.09;63.52;99029.09;5112356;28;20092;-51
2021/09/06 03:31:34;;;;;;;54.25;48.72;;;;;;;20.22;63.78;99027.06;5112262;28;20024;-51
2021/09/06 03:34:00;;;;;;;15.57;13.82;;;;;;;20.30;63.24;99030.06;5110896;28;20027;-50
2021/09/06 03:36:27;;;;;;;11.43;5.70;;;;;;;19.98;63.08;99029.25;5093938;28;20034;-50
2021/09/06 03:38:55;;;;;;;8.45;6.05;;;;;;;19.56;63.92;99039.50;5112537;28;20031;-51
2021/09/06 03:41:21;;;;;;;8.43;6.55;;;;;;;19.08;65.00;99035.75;5112119;28;20016;-51
2021/09/06 03:43:47;;;;;;;15.60;7.57;;;;;;;18.78;66.04;99041.44;5112148;28;20051;-51
2021/09/06 03:46:13;;;;;;;15.93;6.68;;;;;;;18.77;66.28;99035.34;5112128;28;20059;-50
2021/09/06 03:48:38;;;;;;;14.98;6.45;;;;;;;18.74;66.00;99041.13;5093810;28;20024;-50
2021/09/06 03:51:04;;;;;;;15.80;11.35;;;;;;;18.47;66.79;99041.03;5112072;28;20024;-51
2021/09/06 03:53:30;;;;;;;13.32;7.45;;;;;;;18.14;67.66;99042.63;5110731;28;20023;-50
2021/09/06 03:55:55;;;;;;;10.23;6.63;;;;;;;17.85;68.95;99051.66;5112048;28;20536;-51
2021/09/06 03:58:21;;;;;;;14.27;7.07;;;;;;;17.67;69.28;99044.72;5093749;28;20031;-50
2021/09/06 04:00:47;;;;;;;25.35;19.42;;;;;;;17.64;70.04;99047.81;5112018;28;20062;-50
2021/09/06 04:03:13;;;;;;;15.55;11.35;;;;;;;17.67;70.08;99056.13;5111980;28;20442;-50
2021/09/06 04:05:39;;;;;;;10.73;7.07;;;;;;;17.65;70.16;99050.25;5111967;28;20050;-50
2021/09/06 04:08:05;;;;;;;12.25;8.73;;;;;;;17.63;70.42;99054.19;5093667;28;20039;-50
2021/09/06 04:10:31;;;;;;;12.60;7.03;;;;;;;17.52;70.36;99053.97;5111877;28;20024;-50
2021/09/06 04:12:57;;;;;;;9.32;8.35;;;;;;;17.43;70.85;99052.75;5111862;28;20388;-50
2021/09/06 04:15:23;;;;;;;13.55;8.90;;;;;;;17.35;71.08;99048.63;5093551;28;20027;-50
2021/09/06 04:17:49;;;;;;;10.20;6.75;;;;;;;17.30;71.42;99051.16;5111862;28;20082;-50
2021/09/06 04:20:15;;;;;;;19.45;13.02;;;;;;;17.30;71.30;99053.00;5111803;28;20020;-50
2021/09/06 04:22:41;;;;;;;16.17;10.98;;;;;;;17.29;71.48;99051.41;5080337;28;20052;-50
2021/09/06 04:25:07;;;;;;;12.82;10.00;;;;;;;17.32;71.43;99059.69;5069813;28;20402;-51
2021/09/06 04:27:34;;;;;;;28.50;24.20;;;;;;;17.59;71.06;99064.47;5074767;28;20033;-50
2021/09/06 04:29:59;;;;;;;8.27;5.63;;;;;;;17.85;70.00;99062.28;5073654;28;20016;-50
2021/09/06 04:32:25;;;;;;;14.80;9.93;;;;;;;17.94;69.62;99063.53;5073538;28;20028;-51
2021/09/06 04:34:51;;;;;;;15.57;8.73;;;;;;;18.06;69.41;99068.78;5074761;28;20109;-50
2021/09/06 04:37:16;;;;;;;13.10;8.38;;;;;;;17.99;68.59;99068.09;5074751;28;20031;-51
2021/09/06 04:39:42;;;;;;;9.98;8.57;;;;;;;17.77;69.31;99068.78;5074776;28;20040;-51
2021/09/06 04:42:08;;;;;;;8.88;6.18;;;;;;;17.55;69.76;99073.94;5074683;28;20066;-51
2021/09/06 04:44:34;;;;;;;21.27;9.70;;;;;;;17.55;70.02;99080.06;5074738;28;20526;-50
2021/09/06 04:46:59;;;;;;;23.33;19.58;;;;;;;17.83;69.73;99080.28;5074644;28;20021;-50
2021/09/06 04:49:25;;;;;;;12.68;10.48;;;;;;;18.13;70.32;99083.53;5073356;28;20445;-50
2021/09/06 04:51:51;;;;;;;36.15;23.63;;;;;;;18.31;70.74;99084.31;5074525;28;20021;-51
2021/09/06 04:54:18;;;;;;;49.00;43.78;;;;;;;18.43;70.39;99089.56;5073184;28;20050;-50
2021/09/06 04:56:45;;;;;;;23.52;16.85;;;;;;;18.52;69.47;99088.94;5074442;28;20405;-51
2021/09/06 04:59:11;;;;;;;37.38;19.92;;;;;;;18.66;69.29;99088.59;5073147;28;20020;-51
2021/09/06 05:01:36;;;;;;;23.45;10.55;;;;;;;18.94;68.28;99087.72;5074361;28;20044;-51
2021/09/06 05:04:03;;;;;;;54.78;49.35;;;;;;;19.14;67.21;99090.63;5074329;28;20020;-50
2021/09/06 05:06:30;;;;;;;146.13;119.13;;;;;;;19.28;66.39;99096.41;5074338;28;20029;-50
2021/09/06 05:08:57;;;;;;;141.07;127.55;;;;;;;19.26;65.88;99089.72;5074288;28;20039;-50
2021/09/06 05:11:23;;;;;;;23.50;18.02;;;;;;;18.88;65.70;99089.47;5074270;28;20025;-50
2021/09/06 05:13:49;;;;;;;27.73;19.40;;;;;;;18.38;66.81;99098.28;5074125;28;20607;-50
2021/09/06 05:16:16;;;;;;;24.48;11.48;;;;;;;18.02;67.72;99100.31;5072791;28;20033;-51
2021/09/06 05:18:44;;;;;;;9.70;7.13;;;;;;;17.72;68.85;99106.63;5074038;28;20024;-50
2021/09/06 05:21:10;;;;;;;52.15;42.35;;;;;;;17.54;69.37;99107.63;5073954;28;20437;-51
2021/09/06 05:23:36;;;;;;;11.38;8.82;;;;;;;17.60;69.72;99107.72;5108552;28;20111;-51
2021/09/06 05:26:02;;;;;;;15.00;8.68;;;;;;;18.02;68.93;99108.28;5114553;28;20019;-51
2021/09/06 05:28:28;;;;;;;7.35;6.25;;;;;;;18.65;67.29;99117.06;5096205;28;20023;-51
2021/09/06 05:30:54;;;;;;;9.75;6.43;;;;;;;19.24;65.38;99113.91;5114472;28;20028;-50
2021/09/06 05:33:20;;;;;;;13.43;6.25;;;;;;;19.88;62.99;99112.53;5096168;28;20035;-51
2021/09/06 05:35:46;;;;;;;9.13;6.00;;;;;;;20.18;61.53;99119.22;5095980;28;20050;-51
2021/09/06 05:38:12;;;;;;;8.57;6.97;;;;;;;20.37;60.96;99115.16;5113605;28;20020;-51
2021/09/06 05:40:41;;;;;;;6.70;5.85;;;;;;;20.62;59.81;99121.75;5095959;28;20081;-51
2021/09/06 05:43:07;;;;;;;10.25;5.78;;;;;;;20.70;59.42;99121.28;5114235;28;20447;-51
2021/09/06 05:45:32;;;;;;;9.02;6.38;;;;;;;20.73;59.25;99123.47;5114188;28;20020;-51
2021/09/06 05:47:58;;;;;;;11.77;5.70;;;;;;;20.97;58.83;99123.06;5114115;28;20389;-51
2021/09/06 05:50:26;;;;;;;10.68;6.72;;;;;;;21.45;57.58;99127.38;5114071;28;20042;-51
2021/09/06 05:52:52;;;;;;;10.85;7.45;;;;;;;21.98;55.91;99131.81;5114015;28;20026;-51
2021/09/06 05:55:18;;;;;;;9.73;5.78;;;;;;;22.18;55.05;99131.03;5113927;28;20149;-51
2021/09/06 05:57:44;;;;;;;28.58;25.73;;;;;;;22.27;54.67;99129.47;5114003;28;20102;-51
2021/09/06 06:00:10;;;;;;;9.15;6.60;;;;;;;22.41;54.23;99138.56;5113901;28;20027;-48
2021/09/06 06:02:37;;;;;;;12.55;6.60;;;;;;;22.36;54.04;99138.56;5113836;28;20077;-49
2021/09/06 06:05:04;;;;;;;10.02;6.10;;;;;;;22.37;54.04;99136.69;5095415;28;20024;-49
2021/09/06 06:07:30;;;;;;;14.43;6.50;;;;;;;22.29;54.33;99146.03;5113777;28;20027;-49
2021/09/06 06:09:56;;;;;;;10.32;6.78;;;;;;;22.23;53.97;99142.50;5095391;28;20153;-49
2021/09/06 06:12:28;;;;;;;8.63;6.25;;;;;;;22.18;54.28;99147.88;5113637;28;20016;-49
2021/09/06 06:14:55;;;;;;;23.20;14.88;;;;;;;22.47;54.61;99145.50;5113545;28;20028;-49
2021/09/06 06:17:21;;;;;;;11.77;7.10;;;;;;;22.94;53.19;99149.78;5113519;28;20062;-48
2021/09/06 06:19:50;;;;;;;10.43;6.93;;;;;;;23.36;52.07;99150.47;5095202;28;20023;-49
2021/09/06 06:22:16;;;;;;;10.23;5.80;;;;;;;23.94;51.05;99152.69;5113205;28;20050;-49
2021/09/06 06:24:42;;;;;;;17.30;6.10;;;;;;;24.37;49.57;99150.25;5113459;28;20064;-49
2021/09/06 06:27:08;;;;;;;9.55;6.28;;;;;;;24.58;48.98;99152.81;5094956;28;20032;-49
2021/09/06 06:29:34;;;;;;;14.40;6.50;;;;;;;24.82;48.11;99150.97;5095051;28;20028;-49
2021/09/06 06:32:01;;;;;;;18.27;6.93;;;;;;;24.90;47.69;99158.41;5113236;28;20027;-49
2021/09/06 06:34:26;;;;;;;12.93;6.45;;;;;;;24.82;47.98;99155.56;5113163;28;20019;-49
2021/09/06 06:36:52;;;;;;;13.30;8.80;;;;;;;24.84;48.49;99156.88;5113145;28;20043;-49
2021/09/06 06:39:18;;;;;;;16.42;7.28;;;;;;;24.84;49.49;99156.06;5113193;28;20019;-49
2021/09/06 06:41:46;;;;;;;15.68;6.38;;;;;;;25.11;47.79;99159.03;5113082;28;20051;-49
2021/09/06 06:44:13;;;;;;;12.18;8.25;;;;;;;25.43;47.21;99151.44;5113074;28;20043;-49
2021/09/06 06:46:39;;;;;;;199.35;135.05;;;;;;;25.94;46.19;99156.22;5112933;28;20120;-49
2021/09/06 06:49:05;;;;;;;396.98;314.40;;;;;;;26.78;44.15;99150.06;5110846;28;20027;-49
2021/09/06 06:51:32;;;;;;;53.58;48.40;;;;;;;27.21;42.59;99160.63;5094407;28;20031;-49
2021/09/06 06:53:57;;;;;;;426.42;333.75;;;;;;;27.69;42.25;99154.81;5094476;28;20027;-49
2021/09/06 06:56:23;;;;;;;172.48;140.63;;;;;;;28.49;40.82;99155.19;5111467;28;20020;-49
2021/09/06 06:58:49;;;;;;;41.60;31.42;;;;;;;29.43;39.21;99157.13;5112745;28;20379;-49
2021/09/06 07:01:14;;;;;;;41.10;33.00;;;;;;;30.37;37.72;99152.16;5111388;28;20035;-52
2021/09/06 07:03:40;;;;;;;25.08;17.10;;;;;;;31.33;36.07;99159.22;5112752;28;20076;-52
2021/09/06 07:06:06;;;;;;;14.05;11.95;;;;;;;31.92;34.43;99151.06;5112653;28;20027;-52
2021/09/06 07:08:32;;;;;;;11.02;6.22;;;;;;;32.15;33.74;99156.16;5111388;28;20023;-51
2021/09/06 07:10:57;;;;;;;9.85;6.40;;;;;;;32.09;34.24;99152.84;5112608;28;20401;-49
2021/09/06 07:13:23;;;;;;;11.07;6.05;;;;;;;32.27;33.38;99158.94;5112590;28;20027;-49
2021/09/06 07:15:49;;;;;;;10.40;6.72;;;;;;;32.50;33.69;99163.97;5112473;28;20047;-49
2021/09/06 07:18:14;;;;;;;12.65;7.68;;;;;;;33.10;32.62;99156.34;5112499;28;20077;-49
2021/09/06 07:20:40;;;;;;;22.00;16.40;;;;;;;33.52;31.82;99158.81;5112725;28;20027;-49
2021/09/06 07:23:07;;;;;;;14.93;8.30;;;;;;;33.34;31.29;99153.63;5094675;28;20047;-49
2021/09/06 07:25:32;;;;;;;13.98;6.38;;;;;;;33.30;31.51;99146.47;5071853;28;20028;-50
2021/09/06 07:27:58;;;;;;;18.30;8.30;;;;;;;33.82;31.25;99151.97;5071856;28;20028;-49
2021/09/06 07:30:26;;;;;;;14.00;9.05;;;;;;;34.33;30.21;99147.97;5071822;28;20020;-50
2021/09/06 07:32:52;;;;;;;47.83;41.63;;;;;;;34.52;30.10;99150.03;5071762;28;20028;-49
2021/09/06 07:35:18;;;;;;;34.97;21.88;;;;;;;35.06;29.07;99157.66;5071671;28;20021;-49
2021/09/06 07:37:44;;;;;;;24.13;12.48;;;;;;;35.36;28.56;99151.78;5071718;28;20024;-49
2021/09/06 07:40:11;;;;;;;15.38;8.25;;;;;;;35.38;28.72;99163.13;5071681;28;20016;-50
2021/09/06 07:42:38;;;;;;;12.80;6.28;;;;;;;35.67;28.30;99152.88;5071668;28;20440;-49
2021/09/06 07:45:06;;;;;;;16.02;8.35;;;;;;;36.22;28.06;99163.75;5071585;28;20064;-49
2021/09/06 07:47:32;;;;;;;25.15;12.35;;;;;;;36.58;27.42;99168.75;5071668;28;20025;-50
2021/09/06 07:49:58;;;;;;;25.95;9.98;;;;;;;37.08;27.00;99162.56;5070297;28;20028;-50
2021/09/06 07:52:24;;;;;;;23.27;6.80;;;;;;;37.25;26.42;99167.56;5071555;28;20505;-50
2021/09/06 07:54:50;;;;;;;32.38;12.85;;;;;;;37.01;26.68;99174.22;5071494;28;20028;-52
2021/09/06 07:57:16;;;;;;;15.75;6.45;;;;;;;37.04;26.97;99178.94;5071528;28;20048;-52
2021/09/06 07:59:41;;;;;;;14.52;7.05;;;;;;;37.15;26.61;99176.41;5071488;28;20031;-52
2021/09/06 08:02:07;;;;;;;31.42;8.85;;;;;;;37.33;26.15;99179.44;5074565;28;20508;-51
2021/09/06 08:04:36;;;;;;;38.67;8.48;;;;;;;37.52;26.01;99182.03;5075541;28;20468;-52
2021/09/06 08:07:02;;;;;;;26.85;8.02;;;;;;;37.64;26.08;99188.50;5075464;28;20021;-52
2021/09/06 08:09:28;;;;;;;23.58;6.50;;;;;;;37.76;25.62;99188.28;5075427;28;20016;-52
2021/09/06 08:11:56;;;;;;;37.30;10.32;;;;;;;37.64;25.96;99186.53;5075285;28;20097;-51
2021/09/06 08:14:23;;;;;;;27.25;8.98;;;;;;;37.67;26.15;99188.56;5075227;28;20024;-52
2021/09/06 08:16:49;;;;;;;33.47;13.25;;;;;;;38.06;25.48;99195.72;5075261;28;20020;-51
2021/09/06 08:19:15;;;;;;;17.30;6.20;;;;;;;38.01;25.60;99190.53;5075192;28;20025;-52
2021/09/06 08:21:41;;;;;;;12.73;6.15;;;;;;;38.23;24.92;99194.34;5076898;28;20375;-51
2021/09/06 08:24:07;;;;;;;14.63;7.40;;;;;;;38.28;25.64;99194.03;5115780;28;20050;-51
2021/09/06 08:26:33;;;;;;;28.85;9.02;;;;;;;38.35;25.62;99194.91;5115710;28;20027;-51
2021/09/06 08:28:59;;;;;;;11.00;6.00;;;;;;;38.46;24.79;99199.72;5115648;28;20035;-52
2021/09/06 08:31:29;;;;;;;9.65;5.93;;;;;;;38.84;24.44;99197.75;5115647;28;20077;-52
2021/09/06 08:33:57;;;;;;;8.77;5.45;;;;;;;38.89;24.60;99200.94;5115438;28;20020;-51
2021/09/06 08:36:23;;;;;;;37.20;8.77;;;;;;;39.13;24.94;99190.56;5115557;28;20088;-52
2021/09/06 08:38:48;;;;;;;34.00;9.00;;;;;;;39.13;24.47;99196.84;5115455;28;20020;-52
2021/09/06 08:41:14;;;;;;;27.10;7.03;;;;;;;39.16;24.63;99200.81;5080250;28;20038;-52
2021/09/06 08:43:40;;;;;;;24.70;10.25;;;;;;;39.33;24.37;99205.63;5115468;28;20020;-52
2021/09/06 08:46:06;;;;;;;12.50;6.55;;;;;;;39.36;24.25;99206.81;5097026;28;20558;-51
2021/09/06 08:48:32;;;;;;;13.93;6.10;;;;;;;39.19;24.60;99196.50;5115339;28;20397;-51
2021/09/06 08:50:58;;;;;;;47.65;19.23;;;;;;;38.65;24.78;99204.25;5115231;28;20032;-50
2021/09/06 08:53:24;;;;;;;37.33;9.35;;;;;;;38.52;25.06;99199.03;5115262;28;20035;-51
2021/09/06 08:55:52;;;;;;;32.80;22.88;;;;;;;38.77;24.81;99212.19;5115061;28;20028;-51
2021/09/06 08:58:18;;;;;;;67.75;60.33;;;;;;;38.99;24.71;99204.97;5115144;28;20511;-52
2021/09/06 09:00:48;;;;;;;16.67;11.93;;;;;;;39.20;24.42;99204.38;5115099;28;20020;-52
2021/09/06 09:03:14;;;;;;;17.17;12.35;;;;;;;38.91;24.40;99203.31;5115364;28;20110;-52
2021/09/06 09:06:04;;;;;;;28.65;23.52;;;;;;;38.57;25.20;99211.59;5114994;28;20032;-52
2021/09/06 09:08:30;;;;;;;18.30;7.28;;;;;;;38.62;25.27;99200.31;5114988;28;20027;-51
2021/09/06 09:11:02;;;;;;;22.92;6.95;;;;;;;38.75;24.94;99198.84;5114847;28;20027;-51
2021/09/06 09:13:31;;;;;;;23.13;13.68;;;;;;;38.90;24.88;99201.75;5095464;28;20030;-52
2021/09/06 09:15:57;;;;;;;15.25;6.35;;;;;;;38.84;24.56;99204.03;5114896;28;20019;-51
2021/09/06 09:18:25;;;;;;;38.47;16.90;;;;;;;38.80;25.30;99196.91;5114796;28;20051;-51
2021/09/06 09:21:00;;;;;;;15.13;9.77;;;;;;;39.15;24.33;99194.50;5114694;28;20016;-51
2021/09/06 09:23:44;;;;;;;12.02;5.60;;;;;;;39.76;23.63;99194.13;5114367;28;20035;-51
2021/09/06 09:26:11;;;;;;;10.82;5.60;;;;;;;39.61;23.68;99195.25;5114655;28;20020;-52
2021/09/06 09:28:46;;;;;;;8.88;4.90;;;;;;;39.45;23.92;99199.06;5114589;28;20051;-51
2021/09/06 09:31:16;;;;;;;14.10;5.47;;;;;;;39.40;23.76;99198.59;5114477;28;20016;-52
2021/09/06 09:33:50;;;;;;;25.00;14.10;;;;;;;39.62;23.12;99194.06;5114635;28;20082;-51
2021/09/06 09:36:33;;;;;;;28.27;16.13;;;;;;;39.73;23.43;99189.41;5114471;28;20076;-51
2021/09/06 09:39:14;;;;;;;13.25;5.95;;;;;;;40.26;22.96;99194.34;5114452;28;20056;-52
2021/09/06 09:41:42;;;;;;;16.90;5.78;;;;;;;40.43;22.80;99200.31;5114308;28;20071;-51
2021/09/06 09:44:15;;;;;;;15.23;6.38;;;;;;;40.86;21.88;99194.94;5114285;28;20389;-52
2021/09/06 09:46:57;;;;;;;12.43;5.30;;;;;;;40.85;22.07;99201.59;5114222;28;20031;-51
2021/09/06 09:49:25;;;;;;;17.92;5.55;;;;;;;40.73;22.07;99192.53;5114246;28;20401;-51
2021/09/06 09:51:52;;;;;;;15.73;5.32;;;;;;;40.68;21.96;99198.41;5095778;28;20362;-51
2021/09/06 09:54:18;;;;;;;12.18;5.85;;;;;;;41.07;21.47;99203.19;5114006;28;20023;-52
2021/09/06 09:56:47;;;;;;;22.08;9.90;;;;;;;41.19;21.57;99193.75;5114004;28;20055;-52
2021/09/06 09:59:18;;;;;;;17.63;6.57;;;;;;;41.69;21.17;99198.41;5113852;28;20114;-51
2021/09/06 10:02:12;;;;;;;16.77;5.53;;;;;;;42.09;20.62;99199.06;5113853;28;20099;-52
2021/09/06 10:04:49;;;;;;;10.70;4.57;;;;;;;42.04;20.69;99194.00;5113902;28;20031;-52
2021/09/06 10:07:17;;;;;;;18.83;7.40;;;;;;;41.74;20.95;99194.44;5113843;28;20059;-52
2021/09/06 10:09:44;;;;;;;13.38;7.60;;;;;;;41.88;20.63;99184.16;5095399;28;20089;-52
2021/09/06 10:12:11;;;;;;;7.70;4.25;;;;;;;41.82;20.57;99194.03;5095335;28;20024;-52
2021/09/06 10:14:49;;;;;;;7.75;4.70;;;;;;;41.83;20.42;99190.09;5113590;28;20015;-51
2021/09/06 10:17:15;;;;;;;8.02;5.05;;;;;;;41.77;20.60;99190.91;5113846;28;20032;-52
2021/09/06 10:19:49;;;;;;;9.27;5.38;;;;;;;41.74;21.04;99183.41;5078410;28;20028;-52
2021/09/06 10:22:27;;;;;;;10.82;5.07;;;;;;;42.01;21.10;99172.69;5113269;28;20116;-52
2021/09/06 10:25:01;;;;;;;8.95;4.50;;;;;;;42.28;20.24;99173.75;5113156;28;20027;-52
2021/09/06 10:27:28;;;;;;;9.20;4.20;;;;;;;42.24;20.02;99170.25;5095076;28;20027;-52
2021/09/06 10:30:00;;;;;;;13.60;6.15;;;;;;;42.27;20.25;99163.91;5113345;28;20499;-51
2021/09/06 10:32:40;;;;;;;9.32;4.97;;;;;;;42.52;19.70;99168.50;5094998;28;20027;-52
2021/09/06 10:35:28;;;;;;;13.13;10.18;;;;;;;42.58;19.62;99166.91;5113395;28;20046;-53
2021/09/06 10:38:05;;;;;;;16.15;6.57;;;;;;;42.36;20.06;99157.94;5113240;28;20023;-52
2021/09/06 10:40:37;;;;;;;12.82;7.30;;;;;;;42.29;20.17;99166.25;5113100;28;20027;-52
2021/09/06 10:43:19;;;;;;;14.73;6.60;;;;;;;42.54;19.92;99149.56;5113491;28;20422;-52
2021/09/06 10:45:47;;;;;;;7.70;3.70;;;;;;;42.48;19.65;99151.19;5112985;28;20028;-51
2021/09/06 10:48:35;;;;;;;11.13;4.53;;;;;;;42.24;19.69;99147.38;5095072;28;20024;-51
2021/09/06 10:51:02;;;;;;;4.95;3.47;;;;;;;41.77;20.08;99147.59;5113202;28;20094;-52
2021/09/06 10:53:29;;;;;;;8.13;3.50;;;;;;;41.83;20.13;99147.97;5112952;28;20093;-52
2021/09/06 10:55:56;;;;;;;6.53;4.45;;;;;;;42.13;19.92;99144.69;5112762;28;20023;-51
2021/09/06 10:58:27;;;;;;;7.88;4.00;;;;;;;42.37;20.00;99140.19;5112840;28;20069;-52
2021/09/06 11:00:59;;;;;;;9.73;3.90;;;;;;;42.50;19.57;99133.03;5112836;28;20450;-51
2021/09/06 11:03:34;;;;;;;5.97;3.85;;;;;;;42.49;19.84;99134.22;5112624;28;20055;-51
2021/09/06 11:06:01;;;;;;;6.10;4.68;;;;;;;42.00;20.10;99132.50;5112883;28;20031;-51
2021/09/06 11:08:30;;;;;;;4.15;3.75;;;;;;;41.93;20.15;99133.31;5112684;28;20076;-52
2021/09/06 11:10:59;;;;;;;4.72;4.22;;;;;;;41.98;20.37;99130.16;5112584;28;20091;-51
2021/09/06 11:13:38;;;;;;;6.50;3.10;;;;;;;41.99;20.29;99125.44;5112589;28;20024;-51
2021/09/06 11:16:07;;;;;;;7.28;3.95;;;;;;;42.31;19.72;99120.50;5112484;28;20028;-51
2021/09/06 11:18:39;;;;;;;11.20;4.30;;;;;;;42.23;19.55;99123.75;5112562;28;20389;-52
2021/09/06 11:21:05;;;;;;;25.73;7.35;;;;;;;41.71;20.26;99125.16;5112538;28;20171;-52
2021/09/06 11:23:40;;;;;;;5.57;3.33;;;;;;;41.49;20.11;99132.72;5074337;28;20041;-52
2021/09/06 11:26:08;;;;;;;7.00;3.67;;;;;;;41.49;19.85;99124.44;5071854;28;20032;-51
2021/09/06 11:28:42;;;;;;;7.35;3.55;;;;;;;41.68;19.85;99125.19;5071865;28;20020;-51